Forest Park, Louisiana
Current Conditions -  °F | °C
As of 9:53 AM on Friday 21 Nov 2014 (Local Time) from KMLU Reporting Station
Overcast Overcast  
Wind Chill: 59°   Ceiling: 9000
Heat Index: 59°   Visibility: 10mi
Dew Point: 50°   Wind: 8mph
Humidity: 72%   Direction: 170°S
Pressure: 30.29"   Gusts: NA
Location:  32.5473°N, 92.2007°W
Report Text: KMLU 211553Z 17007KT 10SM OVC090 15/10 A3029 RMK AO2 SLP255 T01500100
Loading
Personal Weather Stations






























Interactive Weather Map New forecast layout! Learn more

10-Day Weather Forecast

Advertisements
Track Severe Weather on mobile